createdAt,value
2019-01-16T01:11:50.959Z,7.88
2019-01-16T01:14:39.785Z,7.80
2019-01-16T01:17:17.536Z,7.86
2019-01-16T01:20:18.243Z,7.86
2019-01-16T01:23:10.174Z,7.87
2019-01-16T01:25:59.396Z,7.91
2019-01-16T01:29:03.411Z,8.06
2019-01-16T01:32:02.064Z,7.96
2019-01-16T01:34:42.929Z,8.05
2019-01-16T01:37:29.056Z,7.96
2019-01-16T01:40:31.042Z,7.91
2019-01-16T01:43:22.931Z,7.93
2019-01-16T01:46:21.798Z,7.93
2019-01-16T01:49:06.675Z,7.82
2019-01-16T01:52:10.974Z,7.79
2019-01-16T01:55:11.783Z,7.84
2019-01-16T01:58:00.604Z,7.79
2019-01-16T02:01:07.796Z,7.82
2019-01-16T02:03:50.065Z,7.77
2019-01-16T02:06:31.786Z,7.76
2019-01-16T02:09:29.914Z,7.70
2019-01-16T02:12:12.978Z,7.60
2019-01-16T02:15:03.866Z,7.57
2019-01-16T02:17:52.672Z,7.73
2019-01-16T02:20:38.476Z,7.72
2019-01-16T02:23:19.084Z,7.81
2019-01-16T02:25:57.704Z,7.77
2019-01-16T02:28:50.944Z,7.72
2019-01-16T02:31:35.016Z,7.77
2019-01-16T02:34:31.166Z,7.67
2019-01-16T02:37:19.985Z,7.69
2019-01-16T02:40:08.798Z,7.57
2019-01-16T02:43:01.337Z,7.70
2019-01-16T02:45:47.094Z,7.71
2019-01-16T02:48:23.793Z,7.69
2019-01-16T02:51:14.116Z,7.59
2019-01-16T02:54:02.946Z,7.64
2019-01-16T02:56:49.882Z,7.59
2019-01-16T02:59:29.915Z,7.59
2019-01-16T03:02:20.085Z,7.61
2019-01-16T03:05:12.065Z,7.65
2019-01-16T03:07:59.723Z,7.57
2019-01-16T03:10:57.929Z,7.56
2019-01-16T03:14:05.200Z,7.58
2019-01-16T03:16:52.776Z,7.48
2019-01-16T03:19:38.049Z,7.50
2019-01-16T03:22:25.413Z,7.48
2019-01-16T03:25:13.896Z,7.56
2019-01-16T03:27:58.922Z,7.53
2019-01-16T03:31:02.990Z,7.58
2019-01-16T03:33:49.269Z,7.59
2019-01-16T03:36:50.234Z,7.59
2019-01-16T03:39:52.715Z,7.52
2019-01-16T03:42:41.607Z,7.54
2019-01-16T03:45:43.115Z,7.42
2019-01-16T03:48:35.163Z,7.55
2019-01-16T03:51:23.949Z,7.59
2019-01-16T03:54:10.751Z,7.57
2019-01-16T03:57:05.730Z,7.54
2019-01-16T03:59:48.175Z,7.49
2019-01-16T04:02:42.513Z,7.55
2019-01-16T04:05:30.883Z,7.58
2019-01-16T04:08:18.623Z,7.55
2019-01-16T04:11:06.117Z,7.46
2019-01-16T04:13:55.044Z,7.50
2019-01-16T04:16:35.099Z,7.45
2019-01-16T04:19:23.927Z,7.46
2019-01-16T04:22:16.015Z,7.45
2019-01-16T04:25:01.971Z,7.38
2019-01-16T04:27:53.678Z,7.37
2019-01-16T04:30:35.709Z,7.49
2019-01-16T04:33:36.825Z,7.46
2019-01-16T04:36:27.835Z,7.40
2019-01-16T04:39:15.691Z,7.43
2019-01-16T04:41:59.334Z,7.46
2019-01-16T04:44:57.304Z,7.51
2019-01-16T04:47:46.011Z,7.43
2019-01-16T04:50:47.060Z,7.44
2019-01-16T04:53:40.713Z,7.46
2019-01-16T04:56:31.582Z,7.44
2019-01-16T04:59:10.312Z,7.34
2019-01-16T05:01:59.074Z,7.55
2019-01-16T05:05:06.030Z,7.64
2019-01-16T05:07:57.519Z,7.62
2019-01-16T05:10:47.055Z,7.67
2019-01-16T05:13:40.238Z,7.75
2019-01-16T05:16:28.984Z,7.73
2019-01-16T05:19:25.280Z,7.72
2019-01-16T05:22:19.191Z,7.71
2019-01-16T05:25:06.368Z,7.73
2019-01-16T05:27:53.845Z,7.70
2019-01-16T05:30:37.976Z,7.75
2019-01-16T05:33:23.243Z,7.68
2019-01-16T05:36:12.538Z,7.65
2019-01-16T05:39:05.217Z,7.67
2019-01-16T05:41:50.224Z,7.61
2019-01-16T05:44:29.956Z,7.59
2019-01-16T05:47:22.863Z,7.56
2019-01-16T05:50:10.596Z,7.59
2019-01-16T05:52:59.653Z,7.55
2019-01-16T05:55:48.637Z,7.61
2019-01-16T05:58:41.474Z,7.52
2019-01-16T06:01:30.289Z,7.60
2019-01-16T06:04:27.119Z,7.61
2019-01-16T06:07:08.548Z,7.68
2019-01-16T06:09:46.983Z,7.58
2019-01-16T06:12:51.992Z,7.68
2019-01-16T06:15:47.242Z,7.69
2019-01-16T06:18:42.447Z,7.68
2019-01-16T06:21:31.837Z,7.76
2019-01-16T06:24:20.760Z,7.79
2019-01-16T06:27:21.770Z,7.73
2019-01-16T06:30:10.674Z,7.75
2019-01-16T06:32:58.124Z,7.79
2019-01-16T06:35:56.579Z,7.73
2019-01-16T06:38:54.300Z,7.79
2019-01-16T06:41:31.963Z,7.78
2019-01-16T06:44:17.419Z,7.78
2019-01-16T06:47:06.301Z,7.81
2019-01-16T06:49:53.419Z,7.83
2019-01-16T06:52:32.406Z,7.83
2019-01-16T06:55:33.490Z,7.76
2019-01-16T06:58:26.840Z,7.77
2019-01-16T07:01:01.497Z,7.81
2019-01-16T07:03:56.242Z,7.81
2019-01-16T07:06:45.031Z,7.76
2019-01-16T07:09:38.057Z,7.76
2019-01-16T07:12:22.709Z,7.75
2019-01-16T07:15:10.223Z,7.76
2019-01-16T07:18:02.475Z,7.91
2019-01-16T07:20:54.525Z,7.85
2019-01-16T07:23:52.582Z,7.89
2019-01-16T07:26:47.293Z,7.79
2019-01-16T07:29:36.155Z,7.78
2019-01-16T07:32:23.979Z,7.79
2019-01-16T07:35:11.829Z,7.80
2019-01-16T07:38:03.607Z,7.76
2019-01-16T07:40:45.264Z,7.74
2019-01-16T07:43:29.788Z,7.79
2019-01-16T07:46:18.689Z,7.85
2019-01-16T07:49:06.071Z,7.85
2019-01-16T07:51:53.548Z,7.86
2019-01-16T07:54:41.236Z,7.86
2019-01-16T07:57:28.037Z,7.86
2019-01-16T08:00:25.768Z,7.85
2019-01-16T08:03:14.730Z,7.81
2019-01-16T08:06:18.652Z,7.80
2019-01-16T08:09:07.553Z,7.84
2019-01-16T08:12:05.188Z,7.84
2019-01-16T08:14:52.253Z,7.84
2019-01-16T08:17:50.055Z,7.80
2019-01-16T08:20:37.695Z,7.81
2019-01-16T08:23:44.806Z,7.87
2019-01-16T08:26:33.703Z,7.79
2019-01-16T08:29:19.070Z,7.81
2019-01-16T08:31:55.691Z,7.75
2019-01-16T08:34:57.318Z,7.77
2019-01-16T08:37:52.100Z,7.85
2019-01-16T08:40:43.770Z,7.85
2019-01-16T08:43:24.885Z,7.92
2019-01-16T08:46:12.534Z,7.90
2019-01-16T08:49:19.945Z,7.87
2019-01-16T08:52:18.124Z,7.85
2019-01-16T08:55:03.882Z,7.88
2019-01-16T08:57:52.872Z,7.88
2019-01-16T09:00:40.252Z,7.89
2019-01-16T09:03:35.219Z,7.94
2019-01-16T09:06:33.250Z,7.89
2019-01-16T09:09:14.190Z,7.85
2019-01-16T09:12:01.861Z,7.77
2019-01-16T09:14:55.104Z,7.93
2019-01-16T09:17:42.618Z,7.97
2019-01-16T09:20:24.754Z,8.08
2019-01-16T09:23:11.763Z,8.14
2019-01-16T09:26:04.082Z,8.05
2019-01-16T09:28:51.766Z,8.23
2019-01-16T09:31:41.876Z,8.27
2019-01-16T09:34:39.707Z,8.24
2019-01-16T09:37:40.920Z,8.30
2019-01-16T09:40:30.988Z,8.37
2019-01-16T09:43:22.695Z,8.25
2019-01-16T09:46:30.764Z,8.38
2019-01-16T09:49:39.225Z,8.42
2019-01-16T09:52:31.828Z,8.45
2019-01-16T09:55:19.702Z,8.47
2019-01-16T09:58:07.459Z,8.26
2019-01-16T10:00:59.207Z,8.27
2019-01-16T10:03:55.056Z,8.35
2019-01-16T10:06:47.047Z,8.08
2019-01-16T10:09:28.230Z,8.23
2019-01-16T10:12:17.020Z,8.33
2019-01-16T10:15:08.943Z,8.37
2019-01-16T10:17:56.522Z,8.17
2019-01-16T10:20:55.436Z,8.30
2019-01-16T10:23:38.726Z,8.39
2019-01-16T10:26:27.632Z,8.34
2019-01-16T10:29:09.714Z,8.40
2019-01-16T10:31:58.549Z,8.41
2019-01-16T10:35:02.857Z,8.44
2019-01-16T10:38:10.241Z,8.46
2019-01-16T10:40:57.493Z,8.43
2019-01-16T10:43:43.675Z,8.41
2019-01-16T10:46:32.939Z,8.61
2019-01-16T10:49:31.100Z,8.66
2019-01-16T10:52:11.947Z,8.64
2019-01-16T10:54:59.621Z,8.64
2019-01-16T10:57:57.247Z,8.51
2019-01-16T11:00:54.961Z,8.47
2019-01-16T11:03:37.219Z,8.36
2019-01-16T11:06:25.895Z,8.41
2019-01-16T11:09:17.475Z,8.54
2019-01-16T11:12:13.575Z,8.48
2019-01-16T11:15:05.451Z,8.46
2019-01-16T11:17:57.110Z,8.31
2019-01-16T11:20:58.217Z,8.43
2019-01-16T11:23:57.858Z,8.38
2019-01-16T11:26:52.519Z,8.44
2019-01-16T11:29:44.315Z,8.46
2019-01-16T11:32:32.104Z,8.41
2019-01-16T11:35:25.639Z,8.43
2019-01-16T11:38:20.310Z,8.37
2019-01-16T11:41:08.286Z,8.48
2019-01-16T11:43:55.877Z,8.48
2019-01-16T11:46:47.863Z,8.67
2019-01-16T11:49:35.487Z,8.77
2019-01-16T11:52:42.718Z,9.10
2019-01-16T11:55:38.395Z,9.32
2019-01-16T11:58:27.305Z,9.21
2019-01-16T12:01:15.398Z,9.00
2019-01-16T12:03:57.941Z,8.88
2019-01-16T12:06:52.842Z,8.81
2019-01-16T12:09:59.837Z,8.60
2019-01-16T12:12:54.522Z,8.70
2019-01-16T12:15:52.628Z,8.49
2019-01-16T12:18:41.726Z,8.41
2019-01-16T12:21:36.583Z,8.31
2019-01-16T12:24:25.475Z,8.25
2019-01-16T12:27:13.292Z,8.23
2019-01-16T12:30:17.330Z,8.15
2019-01-16T12:32:57.940Z,8.12
2019-01-16T12:35:49.902Z,7.88
2019-01-16T12:38:44.790Z,7.98
2019-01-16T12:41:33.644Z,8.07
2019-01-16T12:44:28.439Z,8.26
2019-01-16T12:47:20.168Z,8.44
2019-01-16T12:50:11.642Z,8.31
2019-01-16T12:53:06.935Z,8.49
2019-01-16T12:55:50.404Z,8.66
2019-01-16T12:58:45.334Z,8.58
2019-01-16T13:01:24.342Z,8.45
2019-01-16T13:04:11.840Z,8.54
2019-01-16T13:06:59.210Z,8.52
2019-01-16T13:09:57.219Z,8.26
2019-01-16T13:12:40.662Z,8.26
2019-01-16T13:15:46.069Z,8.13
2019-01-16T13:18:44.438Z,8.22
2019-01-16T13:21:40.066Z,8.17
2019-01-16T13:24:27.606Z,8.16
2019-01-16T13:27:17.319Z,8.15
2019-01-16T13:30:24.696Z,8.03
2019-01-16T13:33:14.783Z,8.22
2019-01-16T13:36:06.566Z,8.10
2019-01-16T13:38:48.818Z,8.11
2019-01-16T13:41:37.598Z,7.92
2019-01-16T13:44:25.449Z,7.86
2019-01-16T13:47:14.857Z,8.09
2019-01-16T13:50:02.538Z,7.96
2019-01-16T13:53:03.850Z,8.02
2019-01-16T13:55:51.312Z,7.94
2019-01-16T13:58:50.378Z,7.97
2019-01-16T14:01:34.509Z,7.92
2019-01-16T14:04:24.001Z,7.77
2019-01-16T14:07:18.593Z,7.90
2019-01-16T14:10:22.491Z,7.80
2019-01-16T14:13:11.191Z,7.73
2019-01-16T14:16:05.959Z,7.72
2019-01-16T14:18:53.411Z,7.84
2019-01-16T14:21:53.072Z,7.97
2019-01-16T14:24:54.387Z,7.98
2019-01-16T14:27:45.953Z,8.03
2019-01-16T14:30:33.609Z,7.93
2019-01-16T14:33:41.325Z,7.87
2019-01-16T14:36:30.241Z,7.88
2019-01-16T14:39:17.663Z,7.70
2019-01-16T14:42:12.921Z,7.75
2019-01-16T14:45:00.451Z,7.55
2019-01-16T14:47:41.694Z,7.59
2019-01-16T14:50:36.688Z,7.73
2019-01-16T14:53:34.961Z,7.61
2019-01-16T14:56:22.416Z,7.61
2019-01-16T14:59:10.241Z,7.47
2019-01-16T15:02:02.382Z,7.43
2019-01-16T15:04:54.239Z,7.44
2019-01-16T15:07:49.877Z,7.39
2019-01-16T15:10:37.667Z,7.28
2019-01-16T15:13:20.689Z,7.26
2019-01-16T15:16:12.531Z,7.20
2019-01-16T15:18:56.280Z,7.19
2019-01-16T15:21:45.171Z,6.98
2019-01-16T15:24:34.014Z,7.04
2019-01-16T15:27:22.765Z,7.03
2019-01-16T15:30:17.455Z,7.00
2019-01-16T15:33:15.308Z,6.96
2019-01-16T15:36:07.221Z,6.94
2019-01-16T15:38:48.189Z,6.87
2019-01-16T15:41:52.372Z,6.79
2019-01-16T15:44:59.666Z,6.84
2019-01-16T15:47:54.737Z,6.84
2019-01-16T15:50:43.642Z,6.82
2019-01-16T15:53:32.400Z,6.83
2019-01-16T15:56:27.303Z,6.77
2019-01-16T15:59:19.340Z,6.73
2019-01-16T16:02:11.393Z,6.72
2019-01-16T16:05:09.312Z,6.69
2019-01-16T16:07:56.887Z,6.72
2019-01-16T16:11:04.201Z,6.71
2019-01-16T16:13:52.266Z,6.60
2019-01-16T16:16:41.164Z,6.67
2019-01-16T16:19:30.038Z,6.61
2019-01-16T16:22:23.008Z,6.68
2019-01-16T16:25:02.538Z,6.68
2019-01-16T16:28:06.505Z,6.65
2019-01-16T16:30:57.826Z,6.65
2019-01-16T16:33:58.603Z,6.61
2019-01-16T16:36:46.514Z,6.57
2019-01-16T16:39:33.875Z,6.44
2019-01-16T16:42:14.503Z,6.44
2019-01-16T16:45:02.022Z,6.43
2019-01-16T16:48:06.234Z,6.42
2019-01-16T16:51:07.006Z,6.38
2019-01-16T16:53:55.225Z,6.35
2019-01-16T16:57:02.244Z,6.30
2019-01-16T17:00:00.002Z,6.40
2019-01-16T17:02:48.898Z,6.39
2019-01-16T17:05:40.578Z,6.34
2019-01-16T17:08:32.587Z,6.32
2019-01-16T17:11:20.006Z,6.35
2019-01-16T17:14:18.297Z,6.27
2019-01-16T17:16:59.969Z,6.21
2019-01-16T17:19:47.649Z,6.18
2019-01-16T17:22:42.675Z,6.11
2019-01-16T17:25:50.104Z,6.10
2019-01-16T17:28:48.240Z,6.03
2019-01-16T17:31:34.558Z,5.99
2019-01-16T17:34:41.640Z,6.02
2019-01-16T17:37:26.615Z,6.05
2019-01-16T17:40:04.761Z,6.05
2019-01-16T17:42:59.625Z,5.97
2019-01-16T17:45:47.689Z,6.02
2019-01-16T17:48:34.595Z,5.93
2019-01-16T17:51:22.234Z,5.83
2019-01-16T17:54:29.317Z,5.87
2019-01-16T18:00:16.114Z,5.83
2019-01-16T18:03:17.426Z,5.81
2019-01-16T18:06:07.326Z,5.81
2019-01-16T18:09:14.589Z,5.85
2019-01-16T18:11:53.955Z,5.82
2019-01-16T18:14:41.709Z,5.83
2019-01-16T18:17:35.414Z,5.84
2019-01-16T18:20:33.369Z,5.82
2019-01-16T18:23:12.624Z,5.85
2019-01-16T18:26:00.158Z,5.85
2019-01-16T18:28:38.261Z,5.86
2019-01-16T18:31:27.051Z,5.88
2019-01-16T18:34:14.946Z,5.86
2019-01-16T18:37:22.003Z,5.84
2019-01-16T18:40:11.593Z,5.88
2019-01-16T18:43:01.595Z,5.82
2019-01-16T18:46:02.496Z,5.91
2019-01-16T18:48:47.305Z,5.92
2019-01-16T18:51:45.341Z,5.98
2019-01-16T18:54:42.530Z,5.93
2019-01-16T18:57:31.636Z,5.94
2019-01-16T19:00:09.556Z,5.93
2019-01-16T19:02:51.934Z,5.97
2019-01-16T19:05:42.809Z,5.98
2019-01-16T19:08:30.569Z,6.07
2019-01-16T19:11:08.464Z,6.11
2019-01-16T19:13:56.427Z,6.07
2019-01-16T19:16:35.393Z,6.08
2019-01-16T19:19:23.159Z,6.15
2019-01-16T19:22:12.326Z,6.12
2019-01-16T19:25:01.097Z,6.11
2019-01-16T19:27:50.511Z,6.16
2019-01-16T19:30:45.422Z,6.22
2019-01-16T19:33:40.540Z,6.22
2019-01-16T19:36:41.565Z,6.24
2019-01-16T19:39:29.646Z,6.33
2019-01-16T19:42:15.797Z,6.32
2019-01-16T19:45:10.842Z,6.26
2019-01-16T19:48:05.906Z,6.38
2019-01-16T19:50:54.840Z,6.45
2019-01-16T19:53:48.944Z,6.50
2019-01-16T19:56:36.594Z,6.55
2019-01-16T19:59:23.820Z,6.45
2019-01-16T20:02:11.083Z,6.50
2019-01-16T20:04:51.660Z,6.58
2019-01-16T20:07:34.466Z,6.53
2019-01-16T20:10:23.388Z,6.55
2019-01-16T20:13:10.366Z,6.53
2019-01-16T20:15:57.924Z,6.45
2019-01-16T20:18:55.656Z,6.57
2019-01-16T20:21:44.172Z,6.53
2019-01-16T20:24:25.693Z,6.67
2019-01-16T20:30:07.148Z,6.69
2019-01-16T20:32:49.087Z,6.63
2019-01-16T20:35:43.886Z,6.67
2019-01-16T20:38:21.959Z,6.72
2019-01-16T20:41:05.927Z,6.58
2019-01-16T20:44:13.311Z,6.56
2019-01-16T20:46:53.398Z,6.56
2019-01-16T20:49:51.620Z,6.56
2019-01-16T20:52:43.616Z,6.46
2019-01-16T20:55:46.030Z,6.35
2019-01-16T20:58:53.311Z,6.28
2019-01-16T21:01:44.806Z,6.24
2019-01-16T21:04:39.701Z,6.21
2019-01-16T21:07:24.072Z,6.12
2019-01-16T21:10:03.795Z,6.04
2019-01-16T21:12:51.305Z,6.08
2019-01-16T21:15:39.289Z,6.01
2019-01-16T21:18:33.957Z,6.01
2019-01-16T21:21:15.069Z,5.93
2019-01-16T21:23:54.398Z,5.92
2019-01-16T21:27:01.271Z,5.92
2019-01-16T21:29:53.127Z,5.87
2019-01-16T21:32:40.811Z,5.87
2019-01-16T21:35:29.703Z,5.87
2019-01-16T21:38:19.186Z,5.86
2019-01-16T21:41:03.129Z,5.96
2019-01-16T21:43:50.675Z,6.00
2019-01-16T21:46:49.579Z,6.11
2019-01-16T21:49:50.601Z,6.09
2019-01-16T21:52:51.706Z,6.22
2019-01-16T21:55:49.339Z,6.29
2019-01-16T21:58:47.646Z,6.39
2019-01-16T22:01:41.371Z,6.48
2019-01-16T22:04:28.851Z,6.55
2019-01-16T22:07:20.853Z,6.61
2019-01-16T22:10:09.773Z,6.71
2019-01-16T22:13:17.358Z,6.73
2019-01-16T22:16:04.857Z,6.68
2019-01-16T22:18:56.450Z,6.75
2019-01-16T22:21:43.995Z,6.69
2019-01-16T22:24:31.639Z,6.74
2019-01-16T22:27:19.555Z,6.65
2019-01-16T22:30:08.507Z,6.56
2019-01-16T22:32:59.670Z,6.51
2019-01-16T22:35:48.479Z,6.46
2019-01-16T22:38:30.843Z,6.42
2019-01-16T22:41:19.157Z,6.48
2019-01-16T22:43:54.357Z,6.53
2019-01-16T22:46:43.117Z,6.49
2019-01-16T22:49:30.793Z,6.50
2019-01-16T22:52:19.673Z,6.45
2019-01-16T22:55:20.821Z,6.47
2019-01-16T22:58:00.624Z,6.48
2019-01-16T23:01:12.624Z,6.51
2019-01-16T23:04:04.616Z,6.45
2019-01-16T23:06:45.481Z,6.40
2019-01-16T23:09:43.443Z,6.47
2019-01-16T23:12:31.116Z,6.51
2019-01-16T23:15:19.884Z,6.54
2019-01-16T23:18:11.608Z,6.49
2019-01-16T23:21:00.778Z,6.46
2019-01-16T23:24:01.672Z,6.58
2019-01-16T23:26:49.078Z,6.65
2019-01-16T23:29:24.232Z,6.63
2019-01-16T23:32:15.818Z,6.65
2019-01-16T23:35:07.670Z,6.67
2019-01-16T23:37:55.390Z,6.65
2019-01-16T23:40:54.620Z,6.71
2019-01-16T23:43:42.408Z,6.75
2019-01-16T23:46:31.303Z,6.70
2019-01-16T23:49:26.068Z,6.71
2019-01-16T23:52:25.722Z,6.58
2019-01-16T23:55:17.284Z,6.57
2019-01-16T23:58:06.065Z,6.66
